Time;durP1;ratioP1;P1;durP2;ratioP2;P2;SDS_P1;SDS_P2;PMS_P1;PMS_P2;Temp;Humidity;BMP_temperature;BMP_pressure;BME280_temperature;BME280_humidity;BME280_pressure;Samples;Min_cycle;Max_cycle;Signal;HPM_P1;HPM_P2
2022/02/13 00:00:11;;;;;;;0.82;0.38;;;;;;;;;;4147996;28;20112;-53
2022/02/13 00:02:15;;;;;;;0.82;0.40;;;;;;;;;;4147288;28;20467;-54
2022/02/13 00:04:18;;;;;;;1.10;0.28;;;;;;;;;;4147893;28;20065;-52
2022/02/13 00:06:19;;;;;;;0.55;0.40;;;;;;;;;;4147272;28;20458;-53
2022/02/13 00:08:20;;;;;;;0.95;0.55;;;;;;;;;;4147563;28;20191;-53
2022/02/13 00:10:22;;;;;;;0.60;0.25;;;;;;;;;;4147380;28;20555;-54
2022/02/13 00:12:23;;;;;;;1.20;0.40;;;;;;;;;;4146230;28;20120;-55
2022/02/13 00:14:25;;;;;;;1.52;0.45;;;;;;;;;;4147311;28;20555;-52
2022/02/13 00:16:26;;;;;;;0.70;0.30;;;;;;;;;;4147020;28;20050;-52
2022/02/13 00:18:27;;;;;;;1.65;0.90;;;;;;;;;;4147185;28;20200;-55
2022/02/13 00:20:28;;;;;;;0.93;0.40;;;;;;;;;;4147216;28;20069;-53
2022/02/13 00:22:30;;;;;;;1.10;0.45;;;;;;;;;;4130122;28;20058;-56
2022/02/13 00:24:31;;;;;;;0.50;0.30;;;;;;;;;;4147255;28;20088;-53
2022/02/13 00:26:33;;;;;;;0.82;0.28;;;;;;;;;;4146963;28;20548;-54
2022/02/13 00:28:36;;;;;;;0.90;0.35;;;;;;;;;;4147247;28;20362;-55
2022/02/13 00:30:37;;;;;;;0.30;0.20;;;;;;;;;;4145993;28;20080;-51
2022/02/13 00:32:40;;;;;;;1.05;0.30;;;;;;;;;;4146656;28;20058;-53
2022/02/13 00:34:44;;;;;;;1.73;0.47;;;;;;;;;;4147448;28;20065;-51
2022/02/13 00:36:45;;;;;;;0.43;0.40;;;;;;;;;;4131552;28;20395;-55
2022/02/13 00:38:47;;;;;;;1.00;0.30;;;;;;;;;;4130973;28;20153;-50
2022/02/13 00:40:48;;;;;;;0.63;0.30;;;;;;;;;;4131010;28;20065;-51
2022/02/13 00:42:49;;;;;;;1.35;0.30;;;;;;;;;;4130743;28;20112;-51
2022/02/13 00:44:51;;;;;;;1.42;0.30;;;;;;;;;;4130786;28;20054;-52
2022/02/13 00:46:52;;;;;;;0.30;0.20;;;;;;;;;;4130234;28;20561;-54
2022/02/13 00:48:54;;;;;;;0.80;0.40;;;;;;;;;;4130693;28;20066;-50
2022/02/13 00:50:55;;;;;;;0.30;0.20;;;;;;;;;;4130666;28;20066;-50
2022/02/13 00:52:56;;;;;;;1.08;0.50;;;;;;;;;;4130547;28;20058;-55
2022/02/13 00:54:58;;;;;;;0.82;0.43;;;;;;;;;;4130648;28;20054;-52
2022/02/13 00:57:00;;;;;;;0.73;0.20;;;;;;;;;;4130412;28;20050;-52
2022/02/13 00:59:01;;;;;;;1.10;0.30;;;;;;;;;;4130711;28;20482;-54
2022/02/13 01:01:03;;;;;;;0.95;0.30;;;;;;;;;;4130699;28;20058;-54
2022/02/13 01:03:03;;;;;;;0.45;0.30;;;;;;;;;;4130064;28;20112;-53
2022/02/13 01:05:05;;;;;;;0.52;0.20;;;;;;;;;;4130809;28;20054;-53
2022/02/13 01:07:06;;;;;;;0.77;0.30;;;;;;;;;;4130566;28;20198;-54
2022/02/13 01:09:08;;;;;;;1.05;0.30;;;;;;;;;;4130450;28;20522;-53
2022/02/13 01:11:08;;;;;;;0.45;0.30;;;;;;;;;;4130558;28;20112;-54
2022/02/13 01:13:10;;;;;;;1.25;0.57;;;;;;;;;;4130224;28;20116;-54
2022/02/13 01:15:11;;;;;;;2.15;0.40;;;;;;;;;;4130237;28;20065;-52
2022/02/13 01:17:12;;;;;;;0.63;0.30;;;;;;;;;;4130104;28;20050;-48
2022/02/13 01:19:13;;;;;;;1.10;0.38;;;;;;;;;;4130339;28;20125;-52
2022/02/13 01:21:15;;;;;;;0.57;0.32;;;;;;;;;;4130557;28;20062;-50
2022/02/13 01:23:16;;;;;;;1.90;0.13;;;;;;;;;;4128973;28;20466;-49
2022/02/13 01:25:17;;;;;;;1.67;0.30;;;;;;;;;;4132484;28;20054;-50
2022/02/13 01:27:18;;;;;;;0.47;0.30;;;;;;;;;;4146103;28;20104;-49
2022/02/13 01:29:20;;;;;;;0.50;0.20;;;;;;;;;;4145858;28;20060;-48
2022/02/13 01:31:21;;;;;;;0.57;0.25;;;;;;;;;;4146435;28;20405;-54
2022/02/13 01:33:23;;;;;;;0.68;0.20;;;;;;;;;;4146140;28;20069;-50
2022/02/13 01:35:24;;;;;;;1.27;0.38;;;;;;;;;;4142088;28;20062;-51
2022/02/13 01:37:26;;;;;;;1.35;0.45;;;;;;;;;;4130409;28;20057;-54
2022/02/13 01:39:27;;;;;;;1.65;0.30;;;;;;;;;;4130192;28;20502;-53
2022/02/13 01:41:28;;;;;;;0.68;0.40;;;;;;;;;;4130205;28;20054;-53
2022/02/13 01:43:29;;;;;;;1.67;0.40;;;;;;;;;;4130558;28;20387;-56
2022/02/13 01:45:30;;;;;;;0.40;0.20;;;;;;;;;;4130030;28;20116;-54
2022/02/13 01:47:34;;;;;;;1.77;0.40;;;;;;;;;;4129482;28;20459;-56
2022/02/13 01:49:35;;;;;;;1.40;0.30;;;;;;;;;;4130244;28;20108;-54
2022/02/13 01:51:37;;;;;;;0.65;0.30;;;;;;;;;;4138779;28;20501;-56
2022/02/13 01:53:38;;;;;;;0.60;0.30;;;;;;;;;;4146389;28;20119;-56
2022/02/13 01:55:39;;;;;;;0.68;0.20;;;;;;;;;;4146279;28;20064;-54
2022/02/13 01:57:41;;;;;;;0.65;0.40;;;;;;;;;;4144985;28;20056;-55
2022/02/13 01:59:42;;;;;;;1.13;0.28;;;;;;;;;;4146581;28;20053;-56
2022/02/13 02:01:43;;;;;;;1.00;0.50;;;;;;;;;;4145690;28;20062;-54
2022/02/13 02:03:45;;;;;;;0.88;0.40;;;;;;;;;;4146236;28;20169;-53
2022/02/13 02:05:46;;;;;;;0.52;0.30;;;;;;;;;;4139806;28;20116;-53
2022/02/13 02:07:47;;;;;;;1.27;0.32;;;;;;;;;;4134125;28;20244;-54
2022/02/13 02:09:52;;;;;;;2.17;0.40;;;;;;;;;;4129915;28;20449;-53
2022/02/13 02:11:53;;;;;;;1.23;0.30;;;;;;;;;;4128583;28;20096;-52
2022/02/13 02:13:54;;;;;;;1.10;0.30;;;;;;;;;;4129877;28;20096;-53
2022/02/13 02:15:55;;;;;;;0.70;0.30;;;;;;;;;;4130112;28;20117;-55
2022/02/13 02:17:56;;;;;;;0.68;0.30;;;;;;;;;;4111931;28;20051;-53
2022/02/13 02:19:57;;;;;;;1.05;0.30;;;;;;;;;;4130150;28;20087;-53
2022/02/13 02:22:00;;;;;;;0.82;0.40;;;;;;;;;;4129735;28;20339;-53
2022/02/13 02:24:01;;;;;;;0.50;0.30;;;;;;;;;;4130032;28;20054;-55
2022/02/13 02:26:02;;;;;;;0.63;0.22;;;;;;;;;;4121215;28;20109;-53
2022/02/13 02:28:03;;;;;;;0.45;0.40;;;;;;;;;;4113611;28;20058;-55
2022/02/13 02:30:05;;;;;;;0.15;0.10;;;;;;;;;;4113654;28;20176;-51
2022/02/13 02:32:10;;;;;;;0.57;0.32;;;;;;;;;;4108052;28;20059;-53
2022/02/13 02:34:12;;;;;;;0.50;0.20;;;;;;;;;;4097689;28;20090;-55
2022/02/13 02:36:15;;;;;;;1.00;0.30;;;;;;;;;;4108423;28;20062;-52
2022/02/13 02:38:16;;;;;;;0.30;0.30;;;;;;;;;;4113668;28;20059;-55
2022/02/13 02:40:18;;;;;;;0.60;0.40;;;;;;;;;;4100698;28;20074;-54
2022/02/13 02:42:19;;;;;;;0.85;0.28;;;;;;;;;;4124845;28;20146;-52
2022/02/13 02:44:20;;;;;;;1.70;0.55;;;;;;;;;;4116812;28;20059;-55
2022/02/13 02:46:21;;;;;;;0.70;0.35;;;;;;;;;;4116303;28;20084;-54
2022/02/13 02:48:23;;;;;;;1.10;0.28;;;;;;;;;;4118403;28;20067;-54
2022/02/13 02:50:24;;;;;;;1.40;0.40;;;;;;;;;;4114067;28;20066;-51
2022/02/13 02:52:25;;;;;;;1.23;0.52;;;;;;;;;;4127623;28;20062;-55
2022/02/13 02:54:26;;;;;;;0.82;0.22;;;;;;;;;;4132445;28;20058;-53
2022/02/13 02:56:27;;;;;;;0.25;0.20;;;;;;;;;;4132681;28;20069;-54
2022/02/13 02:58:29;;;;;;;0.95;0.32;;;;;;;;;;4115256;28;20063;-53
2022/02/13 03:00:30;;;;;;;0.57;0.30;;;;;;;;;;4115226;28;20086;-54
2022/02/13 03:02:32;;;;;;;0.20;0.20;;;;;;;;;;4131847;28;20081;-53
2022/02/13 03:04:33;;;;;;;0.50;0.22;;;;;;;;;;4125790;28;20063;-55
2022/02/13 03:06:34;;;;;;;0.40;0.40;;;;;;;;;;4122250;28;20058;-55
2022/02/13 03:08:35;;;;;;;0.80;0.20;;;;;;;;;;4116141;28;20059;-51
2022/02/13 03:10:37;;;;;;;0.57;0.32;;;;;;;;;;4116152;28;20074;-51
2022/02/13 03:12:38;;;;;;;0.57;0.45;;;;;;;;;;4115871;28;20392;-55
2022/02/13 03:14:39;;;;;;;2.00;0.35;;;;;;;;;;4116115;28;20069;-51
2022/02/13 03:16:40;;;;;;;0.43;0.10;;;;;;;;;;4115493;28;20113;-51
2022/02/13 03:18:41;;;;;;;0.63;0.22;;;;;;;;;;4116018;28;20086;-54
2022/02/13 03:20:42;;;;;;;0.75;0.40;;;;;;;;;;4116245;28;20074;-55
2022/02/13 03:22:43;;;;;;;0.63;0.20;;;;;;;;;;4115861;28;20062;-54
2022/02/13 03:24:45;;;;;;;0.40;0.20;;;;;;;;;;4116175;28;20055;-55
2022/02/13 03:26:46;;;;;;;0.63;0.20;;;;;;;;;;4115670;28;20061;-53
2022/02/13 03:28:47;;;;;;;0.75;0.30;;;;;;;;;;4115759;28;20058;-55
2022/02/13 03:30:48;;;;;;;0.82;0.30;;;;;;;;;;4115751;28;20086;-54
2022/02/13 03:32:49;;;;;;;0.77;0.30;;;;;;;;;;4115479;28;20106;-56
2022/02/13 03:34:50;;;;;;;0.45;0.30;;;;;;;;;;4115797;28;20146;-54
2022/02/13 03:36:52;;;;;;;0.55;0.28;;;;;;;;;;4115817;28;20058;-52
2022/02/13 03:38:53;;;;;;;1.15;0.20;;;;;;;;;;4115653;28;20070;-55
2022/02/13 03:40:54;;;;;;;1.65;0.68;;;;;;;;;;4116262;28;20065;-55
2022/02/13 03:42:55;;;;;;;0.55;0.25;;;;;;;;;;4117979;28;20062;-51
2022/02/13 03:44:56;;;;;;;0.68;0.30;;;;;;;;;;4123598;28;20090;-54
2022/02/13 03:46:57;;;;;;;0.55;0.38;;;;;;;;;;4115099;28;20581;-54
2022/02/13 03:48:58;;;;;;;1.65;0.50;;;;;;;;;;4115828;28;20057;-53
2022/02/13 03:50:59;;;;;;;0.77;0.30;;;;;;;;;;4114633;28;20055;-51
2022/02/13 03:53:01;;;;;;;0.60;0.30;;;;;;;;;;4115696;28;20054;-52
2022/02/13 03:55:03;;;;;;;1.65;0.43;;;;;;;;;;4115538;28;20167;-54
2022/02/13 03:57:04;;;;;;;0.43;0.30;;;;;;;;;;4111457;28;20053;-55
2022/02/13 03:59:06;;;;;;;1.55;0.40;;;;;;;;;;4104690;28;20074;-52
2022/02/13 04:01:07;;;;;;;1.13;0.32;;;;;;;;;;4113723;28;20363;-54
2022/02/13 04:03:08;;;;;;;0.82;0.43;;;;;;;;;;4113347;28;20050;-52
2022/02/13 04:05:10;;;;;;;0.70;0.55;;;;;;;;;;4113673;28;20058;-56
2022/02/13 04:07:12;;;;;;;0.93;0.22;;;;;;;;;;4113066;28;20502;-55
2022/02/13 04:09:13;;;;;;;0.90;0.43;;;;;;;;;;4113071;28;20121;-54
2022/02/13 04:11:14;;;;;;;0.75;0.25;;;;;;;;;;4113394;28;20055;-50
2022/02/13 04:13:16;;;;;;;0.55;0.52;;;;;;;;;;4121583;28;20422;-54
2022/02/13 04:15:18;;;;;;;0.77;0.40;;;;;;;;;;4113495;28;20125;-55
2022/02/13 04:17:20;;;;;;;0.93;0.30;;;;;;;;;;4123065;28;20062;-49
2022/02/13 04:19:21;;;;;;;0.32;0.30;;;;;;;;;;4115090;28;20486;-55
2022/02/13 04:21:22;;;;;;;0.35;0.30;;;;;;;;;;4115043;28;20069;-55
2022/02/13 04:23:23;;;;;;;0.60;0.28;;;;;;;;;;4115045;28;20063;-53
2022/02/13 04:25:24;;;;;;;0.98;0.50;;;;;;;;;;4121558;28;20069;-55
2022/02/13 04:27:26;;;;;;;1.00;0.30;;;;;;;;;;4144808;28;20945;-54
2022/02/13 04:29:27;;;;;;;1.85;0.55;;;;;;;;;;4140666;28;20058;-53
2022/02/13 04:31:28;;;;;;;0.88;0.20;;;;;;;;;;4128145;28;20062;-54
2022/02/13 04:33:29;;;;;;;0.73;0.30;;;;;;;;;;4128808;28;20058;-55
2022/02/13 04:35:33;;;;;;;1.17;0.40;;;;;;;;;;4133752;28;20136;-53
2022/02/13 04:37:34;;;;;;;0.88;0.30;;;;;;;;;;4145001;28;20057;-51
2022/02/13 04:39:35;;;;;;;0.32;0.20;;;;;;;;;;4145159;28;20050;-54
2022/02/13 04:41:36;;;;;;;1.42;0.40;;;;;;;;;;4145224;28;20058;-52
2022/02/13 04:43:37;;;;;;;2.00;0.35;;;;;;;;;;4143122;28;20065;-49
2022/02/13 04:45:38;;;;;;;0.55;0.30;;;;;;;;;;4138296;28;20108;-54
2022/02/13 04:47:40;;;;;;;1.45;0.38;;;;;;;;;;4145108;28;20524;-55
2022/02/13 04:49:41;;;;;;;0.55;0.30;;;;;;;;;;4140557;28;20058;-55
2022/02/13 04:51:42;;;;;;;1.42;0.50;;;;;;;;;;4137510;28;20062;-53
2022/02/13 04:53:43;;;;;;;0.90;0.40;;;;;;;;;;4130586;28;20054;-55
2022/02/13 04:55:45;;;;;;;0.63;0.30;;;;;;;;;;4113350;28;20376;-55
2022/02/13 04:57:46;;;;;;;0.70;0.30;;;;;;;;;;4113371;28;20082;-55
2022/02/13 04:59:47;;;;;;;1.00;0.40;;;;;;;;;;4130478;28;20338;-53
2022/02/13 05:01:48;;;;;;;2.47;0.40;;;;;;;;;;4130232;28;20055;-56
2022/02/13 05:03:49;;;;;;;0.88;0.45;;;;;;;;;;4130333;28;20054;-55
2022/02/13 05:05:54;;;;;;;0.70;0.40;;;;;;;;;;4130583;28;20384;-54
2022/02/13 05:07:55;;;;;;;1.35;0.40;;;;;;;;;;4129075;28;20054;-52
2022/02/13 05:09:56;;;;;;;0.70;0.50;;;;;;;;;;4130388;28;20058;-53
2022/02/13 05:11:58;;;;;;;0.82;0.20;;;;;;;;;;4130269;28;20120;-55
2022/02/13 05:14:01;;;;;;;0.30;0.20;;;;;;;;;;4130337;28;20121;-50
2022/02/13 05:16:02;;;;;;;0.40;0.30;;;;;;;;;;4129264;28;20477;-53
2022/02/13 05:18:04;;;;;;;0.60;0.30;;;;;;;;;;4129879;28;20051;-54
2022/02/13 05:20:06;;;;;;;0.30;0.25;;;;;;;;;;4130353;28;20061;-55
2022/02/13 05:22:07;;;;;;;0.88;0.45;;;;;;;;;;4130334;28;20093;-55
2022/02/13 05:24:09;;;;;;;0.85;0.40;;;;;;;;;;4130407;28;20058;-55
2022/02/13 05:26:12;;;;;;;0.65;0.40;;;;;;;;;;4130187;28;20054;-55
2022/02/13 05:28:13;;;;;;;1.52;0.38;;;;;;;;;;4113040;28;20061;-55
2022/02/13 05:30:14;;;;;;;0.73;0.30;;;;;;;;;;4130427;28;20058;-55
2022/02/13 05:32:15;;;;;;;0.63;0.30;;;;;;;;;;4129773;28;20108;-51
2022/02/13 05:34:16;;;;;;;1.25;0.35;;;;;;;;;;4130363;28;20090;-55
2022/02/13 05:36:17;;;;;;;0.90;0.40;;;;;;;;;;4129967;28;20477;-55
2022/02/13 05:38:18;;;;;;;1.27;0.30;;;;;;;;;;4130194;28;20058;-55
2022/02/13 05:40:20;;;;;;;0.40;0.30;;;;;;;;;;4130360;28;20062;-54
2022/02/13 05:42:23;;;;;;;1.25;0.40;;;;;;;;;;4130051;28;20050;-53
2022/02/13 05:44:24;;;;;;;0.40;0.30;;;;;;;;;;4130186;28;20090;-54
2022/02/13 05:46:25;;;;;;;0.40;0.25;;;;;;;;;;4130229;28;20124;-52
2022/02/13 05:48:27;;;;;;;0.85;0.28;;;;;;;;;;4129722;28;20062;-53
2022/02/13 05:50:28;;;;;;;0.68;0.50;;;;;;;;;;4130090;28;20497;-52
2022/02/13 05:52:29;;;;;;;0.60;0.20;;;;;;;;;;4130063;28;20161;-52
2022/02/13 05:54:30;;;;;;;1.27;0.50;;;;;;;;;;4130212;28;20058;-55
2022/02/13 05:56:31;;;;;;;1.90;0.50;;;;;;;;;;4125366;28;20145;-53
2022/02/13 05:58:36;;;;;;;1.08;0.50;;;;;;;;;;4130374;28;20110;-55
2022/02/13 06:00:37;;;;;;;1.02;0.35;;;;;;;;;;4130232;28;20136;-54
2022/02/13 06:02:39;;;;;;;0.80;0.40;;;;;;;;;;4129907;28;20054;-54
2022/02/13 06:04:40;;;;;;;0.95;0.43;;;;;;;;;;4129912;28;20120;-55
2022/02/13 06:06:41;;;;;;;1.05;0.30;;;;;;;;;;4129639;28;20449;-51
2022/02/13 06:08:42;;;;;;;1.23;0.40;;;;;;;;;;4130036;28;20054;-50
2022/02/13 06:10:43;;;;;;;0.90;0.40;;;;;;;;;;4129964;28;20560;-53
2022/02/13 06:12:44;;;;;;;0.77;0.30;;;;;;;;;;4129840;28;20054;-49
2022/02/13 06:14:45;;;;;;;0.65;0.30;;;;;;;;;;4131423;28;20112;-53
2022/02/13 06:16:46;;;;;;;0.63;0.30;;;;;;;;;;4132750;28;20122;-51
2022/02/13 06:18:48;;;;;;;0.90;0.30;;;;;;;;;;4133418;28;20058;-52
2022/02/13 06:20:49;;;;;;;0.82;0.30;;;;;;;;;;4133243;28;20054;-49
2022/02/13 06:22:50;;;;;;;0.85;0.32;;;;;;;;;;4132846;28;20077;-53
2022/02/13 06:24:51;;;;;;;0.95;0.45;;;;;;;;;;4133230;28;20058;-54
2022/02/13 06:26:53;;;;;;;0.85;0.30;;;;;;;;;;4132615;28;20510;-51
2022/02/13 06:28:55;;;;;;;0.77;0.32;;;;;;;;;;4132927;28;20486;-51
2022/02/13 06:30:56;;;;;;;0.95;0.30;;;;;;;;;;4133272;28;20112;-49
2022/02/13 06:32:59;;;;;;;0.60;0.30;;;;;;;;;;4132361;28;20112;-52
2022/02/13 06:35:00;;;;;;;0.75;0.30;;;;;;;;;;4132738;28;20081;-52
2022/02/13 06:37:01;;;;;;;1.05;0.40;;;;;;;;;;4132545;28;20058;-53
2022/02/13 06:39:03;;;;;;;1.33;0.47;;;;;;;;;;4131509;28;20054;-49
2022/02/13 06:41:04;;;;;;;0.82;0.30;;;;;;;;;;4132435;28;20058;-49
2022/02/13 06:43:05;;;;;;;1.02;0.40;;;;;;;;;;4131069;28;20161;-52
2022/02/13 06:45:07;;;;;;;1.13;0.43;;;;;;;;;;4132859;28;20050;-52
2022/02/13 06:47:08;;;;;;;0.93;0.20;;;;;;;;;;4132005;28;20054;-53
2022/02/13 06:49:09;;;;;;;0.82;0.43;;;;;;;;;;4132876;28;20132;-52
2022/02/13 06:51:10;;;;;;;2.00;0.47;;;;;;;;;;4132595;28;20113;-55
2022/02/13 06:53:11;;;;;;;0.75;0.20;;;;;;;;;;4132166;28;20458;-55
2022/02/13 06:55:12;;;;;;;1.10;0.38;;;;;;;;;;4132610;28;20062;-53
2022/02/13 06:57:13;;;;;;;0.73;0.30;;;;;;;;;;4132603;28;20082;-54
2022/02/13 06:59:15;;;;;;;1.35;0.50;;;;;;;;;;4132434;28;20173;-55
2022/02/13 07:01:16;;;;;;;0.40;0.30;;;;;;;;;;4132506;28;20054;-55
2022/02/13 07:03:17;;;;;;;0.50;0.20;;;;;;;;;;4131857;28;20062;-54
2022/02/13 07:05:19;;;;;;;1.30;0.50;;;;;;;;;;4132583;28;20108;-51
2022/02/13 07:07:20;;;;;;;2.38;0.55;;;;;;;;;;4132090;28;20474;-54
2022/02/13 07:09:22;;;;;;;1.13;0.40;;;;;;;;;;4132237;28;20101;-53
2022/02/13 07:11:23;;;;;;;0.75;0.35;;;;;;;;;;4132540;28;20058;-53
2022/02/13 07:13:24;;;;;;;1.20;0.32;;;;;;;;;;4132077;28;20062;-53
2022/02/13 07:15:26;;;;;;;0.60;0.30;;;;;;;;;;4132313;28;20112;-53
2022/02/13 07:17:27;;;;;;;1.10;0.30;;;;;;;;;;4114418;28;20129;-52
2022/02/13 07:19:28;;;;;;;1.05;0.40;;;;;;;;;;4132464;28;20058;-52
2022/02/13 07:21:30;;;;;;;1.35;0.35;;;;;;;;;;4131978;28;20439;-50
2022/02/13 07:23:31;;;;;;;1.75;0.52;;;;;;;;;;4132208;28;20445;-53
2022/02/13 07:25:32;;;;;;;0.70;0.30;;;;;;;;;;4131400;28;20089;-54
2022/02/13 07:27:35;;;;;;;0.60;0.30;;;;;;;;;;4131732;28;20054;-51
2022/02/13 07:29:36;;;;;;;1.40;0.40;;;;;;;;;;4132078;28;20473;-55
2022/02/13 07:31:37;;;;;;;1.02;0.30;;;;;;;;;;4131357;28;20466;-53
2022/02/13 07:33:39;;;;;;;1.15;0.40;;;;;;;;;;4131937;28;20497;-54
2022/02/13 07:35:43;;;;;;;1.35;0.38;;;;;;;;;;4131814;28;20485;-53
2022/02/13 07:37:45;;;;;;;0.77;0.43;;;;;;;;;;4131836;28;20058;-53
2022/02/13 07:39:47;;;;;;;0.75;0.43;;;;;;;;;;4131701;28;20058;-49
2022/02/13 07:41:48;;;;;;;1.02;0.40;;;;;;;;;;4131862;28;20061;-54
2022/02/13 07:43:49;;;;;;;1.20;0.57;;;;;;;;;;4131716;28;20758;-55
2022/02/13 07:45:50;;;;;;;0.90;0.47;;;;;;;;;;4131813;28;20117;-54
2022/02/13 07:47:51;;;;;;;0.70;0.32;;;;;;;;;;4131401;28;20077;-51
2022/02/13 07:49:52;;;;;;;0.22;0.20;;;;;;;;;;4131542;28;20124;-56
2022/02/13 07:51:54;;;;;;;0.90;0.40;;;;;;;;;;4131446;28;20387;-55
2022/02/13 07:53:55;;;;;;;0.82;0.30;;;;;;;;;;4131571;28;20116;-53
2022/02/13 07:55:56;;;;;;;0.70;0.40;;;;;;;;;;4131681;28;20457;-53
2022/02/13 07:57:57;;;;;;;0.85;0.38;;;;;;;;;;4131295;28;20164;-51
2022/02/13 07:59:58;;;;;;;1.05;0.38;;;;;;;;;;4131765;28;20054;-55
2022/02/13 08:02:00;;;;;;;0.40;0.30;;;;;;;;;;4146036;28;20104;-55
2022/02/13 08:04:01;;;;;;;2.25;0.40;;;;;;;;;;4131410;28;20432;-53
2022/02/13 08:06:05;;;;;;;0.93;0.38;;;;;;;;;;4146590;28;20054;-53
2022/02/13 08:08:06;;;;;;;1.08;0.50;;;;;;;;;;4146452;28;20172;-55
2022/02/13 08:10:08;;;;;;;0.77;0.30;;;;;;;;;;4131611;28;20190;-54
2022/02/13 08:12:09;;;;;;;0.60;0.40;;;;;;;;;;4131166;28;20050;-51
2022/02/13 08:14:10;;;;;;;0.80;0.30;;;;;;;;;;4131252;28;20117;-49
2022/02/13 08:16:12;;;;;;;1.23;0.35;;;;;;;;;;4131205;28;20058;-55
2022/02/13 08:18:14;;;;;;;0.70;0.20;;;;;;;;;;4130722;28;20069;-53
2022/02/13 08:20:15;;;;;;;1.33;0.25;;;;;;;;;;4131378;28;20062;-55
2022/02/13 08:22:16;;;;;;;0.38;0.30;;;;;;;;;;4130945;28;20419;-53
2022/02/13 08:24:18;;;;;;;1.00;0.40;;;;;;;;;;4131296;28;20054;-52
2022/02/13 08:26:19;;;;;;;0.65;0.30;;;;;;;;;;4130978;28;20066;-55
2022/02/13 08:28:20;;;;;;;0.77;0.30;;;;;;;;;;4131034;28;20472;-54
2022/02/13 08:30:22;;;;;;;0.60;0.40;;;;;;;;;;4131864;28;20100;-54
2022/02/13 08:32:23;;;;;;;0.57;0.40;;;;;;;;;;4131173;28;20443;-54
2022/02/13 08:34:25;;;;;;;1.00;0.40;;;;;;;;;;4131305;28;20058;-55
2022/02/13 08:36:26;;;;;;;1.48;0.45;;;;;;;;;;4131391;28;20054;-52
2022/02/13 08:38:27;;;;;;;0.75;0.32;;;;;;;;;;4131770;28;20113;-55
2022/02/13 08:40:28;;;;;;;0.55;0.38;;;;;;;;;;4132190;28;20050;-55
2022/02/13 08:42:29;;;;;;;1.25;0.47;;;;;;;;;;4131500;28;20514;-51
2022/02/13 08:44:31;;;;;;;0.32;0.20;;;;;;;;;;4131666;28;20116;-55
2022/02/13 08:46:34;;;;;;;0.73;0.30;;;;;;;;;;4130873;28;20116;-51
2022/02/13 08:48:35;;;;;;;0.90;0.40;;;;;;;;;;4131722;28;20086;-51
2022/02/13 08:50:36;;;;;;;0.43;0.40;;;;;;;;;;4131418;28;20128;-54
2022/02/13 08:52:37;;;;;;;0.30;0.30;;;;;;;;;;4131223;28;20109;-53
2022/02/13 08:54:38;;;;;;;1.17;0.40;;;;;;;;;;4131699;28;20537;-52
2022/02/13 08:56:40;;;;;;;0.68;0.30;;;;;;;;;;4131571;28;20490;-54
2022/02/13 08:58:41;;;;;;;1.08;0.40;;;;;;;;;;4131489;28;20050;-52
2022/02/13 09:00:42;;;;;;;0.60;0.45;;;;;;;;;;4130984;28;20438;-53
2022/02/13 09:02:43;;;;;;;0.50;0.30;;;;;;;;;;4129200;28;20051;-55
2022/02/13 09:04:44;;;;;;;1.00;0.40;;;;;;;;;;4130627;28;20069;-54
2022/02/13 09:06:45;;;;;;;1.00;0.50;;;;;;;;;;4130422;28;20113;-54
2022/02/13 09:08:46;;;;;;;0.57;0.40;;;;;;;;;;4130711;28;20054;-55
2022/02/13 09:10:47;;;;;;;0.50;0.30;;;;;;;;;;4130573;28;20062;-55
2022/02/13 09:12:48;;;;;;;0.85;0.38;;;;;;;;;;4113410;28;20054;-55
2022/02/13 09:14:50;;;;;;;0.47;0.40;;;;;;;;;;4130521;28;20054;-56
2022/02/13 09:16:51;;;;;;;1.08;0.50;;;;;;;;;;4130222;28;20120;-56
2022/02/13 09:18:52;;;;;;;0.30;0.20;;;;;;;;;;4130361;28;20113;-55
2022/02/13 09:20:53;;;;;;;1.27;0.40;;;;;;;;;;4130455;28;20113;-53
2022/02/13 09:22:54;;;;;;;0.43;0.30;;;;;;;;;;4130349;28;20078;-55
2022/02/13 09:24:56;;;;;;;1.13;0.43;;;;;;;;;;4130527;28;20065;-59
2022/02/13 09:26:57;;;;;;;1.42;0.40;;;;;;;;;;4129990;28;20054;-57
2022/02/13 09:29:01;;;;;;;0.98;0.40;;;;;;;;;;4130595;28;20112;-54
2022/02/13 09:31:04;;;;;;;0.68;0.20;;;;;;;;;;4130223;28;20054;-57
2022/02/13 09:33:05;;;;;;;1.67;0.40;;;;;;;;;;4130042;28;20059;-55
2022/02/13 09:35:08;;;;;;;0.68;0.30;;;;;;;;;;4129821;28;20112;-55
2022/02/13 09:37:09;;;;;;;0.40;0.30;;;;;;;;;;4144869;28;20482;-54
2022/02/13 09:39:10;;;;;;;1.42;0.50;;;;;;;;;;4130257;28;20061;-56
2022/02/13 09:41:12;;;;;;;0.68;0.35;;;;;;;;;;4130431;28;20169;-54
2022/02/13 09:43:15;;;;;;;0.45;0.40;;;;;;;;;;4130133;28;20585;-49
2022/02/13 09:45:17;;;;;;;0.40;0.30;;;;;;;;;;4130242;28;20109;-53
2022/02/13 09:47:19;;;;;;;0.82;0.50;;;;;;;;;;4129718;28;20439;-53
2022/02/13 09:49:22;;;;;;;0.88;0.28;;;;;;;;;;4131045;28;20104;-55
2022/02/13 09:51:23;;;;;;;1.67;0.30;;;;;;;;;;4133456;28;20116;-54
2022/02/13 09:53:27;;;;;;;0.30;0.20;;;;;;;;;;4133301;28;20054;-48
2022/02/13 09:55:30;;;;;;;1.05;0.47;;;;;;;;;;4133352;28;20054;-49
2022/02/13 09:59:55;;;;;;;1.10;0.40;;;;;;;;;;4133305;28;20077;-52
2022/02/13 10:01:56;;;;;;;0.32;0.20;;;;;;;;;;4132954;28;20061;-49
2022/02/13 10:03:57;;;;;;;0.85;0.30;;;;;;;;;;4133139;28;20085;-49
2022/02/13 10:06:20;;;;;;;0.93;0.50;;;;;;;;;;4133343;28;20054;-51
2022/02/13 10:08:34;;;;;;;0.93;0.30;;;;;;;;;;4132917;28;20356;-52
2022/02/13 10:10:35;;;;;;;0.57;0.30;;;;;;;;;;4133535;28;20055;-50
2022/02/13 10:12:44;;;;;;;0.68;0.43;;;;;;;;;;4132869;28;20109;-54
2022/02/13 10:14:45;;;;;;;1.45;0.38;;;;;;;;;;4132857;28;20050;-50
2022/02/13 10:16:49;;;;;;;0.88;0.30;;;;;;;;;;4132853;28;20531;-52
2022/02/13 10:18:58;;;;;;;1.13;0.40;;;;;;;;;;4133067;28;20066;-55
2022/02/13 10:20:59;;;;;;;0.68;0.30;;;;;;;;;;4133362;28;20074;-51
2022/02/13 10:23:05;;;;;;;0.43;0.30;;;;;;;;;;4132836;28;20058;-48
2022/02/13 10:25:14;;;;;;;0.75;0.30;;;;;;;;;;4133830;28;20058;-52
2022/02/13 10:27:16;;;;;;;0.77;0.30;;;;;;;;;;4149098;28;20058;-50
2022/02/13 10:29:19;;;;;;;0.52;0.30;;;;;;;;;;4149254;28;20116;-52
2022/02/13 10:31:22;;;;;;;1.15;0.40;;;;;;;;;;4149287;28;20120;-50
2022/02/13 10:33:27;;;;;;;0.60;0.28;;;;;;;;;;4148622;28;20058;-51
2022/02/13 10:35:29;;;;;;;0.28;0.20;;;;;;;;;;4144137;28;20062;-52
2022/02/13 10:37:38;;;;;;;0.57;0.40;;;;;;;;;;4131382;28;20058;-49
2022/02/13 10:39:44;;;;;;;0.40;0.20;;;;;;;;;;4132785;28;20058;-53
2022/02/13 10:41:46;;;;;;;0.43;0.22;;;;;;;;;;4132726;28;20055;-49
2022/02/13 10:44:06;;;;;;;0.40;0.22;;;;;;;;;;4132533;28;20133;-50
2022/02/13 10:46:14;;;;;;;;;;;;;;;;;;4133407;28;20062;-53
2022/02/13 10:48:16;;;;;;;0.75;0.35;;;;;;;;;;4114814;28;19922;-52
2022/02/13 10:50:19;;;;;;;0.77;0.30;;;;;;;;;;4115288;28;20086;-54
2022/02/13 10:52:21;;;;;;;0.47;0.20;;;;;;;;;;4132252;28;20062;-53
2022/02/13 10:54:23;;;;;;;1.05;0.40;;;;;;;;;;4099387;29;20059;-49
2022/02/13 10:56:24;;;;;;;0.82;0.40;;;;;;;;;;4132830;28;20073;-54
2022/02/13 10:58:26;;;;;;;0.57;0.32;;;;;;;;;;4132111;28;20421;-52
2022/02/13 11:00:30;;;;;;;0.63;0.20;;;;;;;;;;4132326;28;20058;-53
2022/02/13 11:02:32;;;;;;;0.52;0.32;;;;;;;;;;4131895;28;20062;-49
2022/02/13 11:04:35;;;;;;;0.77;0.43;;;;;;;;;;4132283;28;20343;-53
2022/02/13 11:06:37;;;;;;;1.20;0.40;;;;;;;;;;4132063;28;20054;-54
2022/02/13 11:08:47;;;;;;;0.45;0.30;;;;;;;;;;4132193;28;20362;-50
2022/02/13 11:10:49;;;;;;;;;;;;;;;;;;4131621;28;20058;-53
2022/02/13 11:12:53;;;;;;;1.02;0.40;;;;;;;;;;4132291;28;19968;-51
2022/02/13 11:15:14;;;;;;;0.38;0.30;;;;;;;;;;4130862;28;20129;-52
2022/02/13 11:17:30;;;;;;;0.93;0.30;;;;;;;;;;4131905;28;20050;-48
2022/02/13 11:19:41;;;;;;;1.23;0.30;;;;;;;;;;4132098;28;20483;-55
2022/02/13 11:21:43;;;;;;;0.57;0.30;;;;;;;;;;4132032;28;20084;-51
2022/02/13 11:23:51;;;;;;;0.57;0.30;;;;;;;;;;4132188;28;20104;-53
2022/02/13 11:25:58;;;;;;;0.55;0.30;;;;;;;;;;4131828;28;20112;-53
2022/02/13 11:28:00;;;;;;;0.40;0.30;;;;;;;;;;4131840;28;20383;-53
2022/02/13 11:30:03;;;;;;;0.68;0.30;;;;;;;;;;4132016;28;20108;-55
2022/02/13 11:32:48;;;;;;;0.55;0.28;;;;;;;;;;4131356;28;20077;-53
2022/02/13 11:34:49;;;;;;;1.20;0.63;;;;;;;;;;4131704;28;20120;-54
2022/02/13 11:36:54;;;;;;;0.52;0.30;;;;;;;;;;4116203;28;20054;-51
2022/02/13 11:38:56;;;;;;;0.57;0.20;;;;;;;;;;4115717;28;20113;-55
2022/02/13 11:40:57;;;;;;;1.38;0.47;;;;;;;;;;4115824;28;20391;-53
2022/02/13 11:42:59;;;;;;;0.47;0.30;;;;;;;;;;4114505;28;20121;-52
2022/02/13 11:45:17;;;;;;;0.20;0.20;;;;;;;;;;4115735;28;20446;-51
2022/02/13 11:47:40;;;;;;;1.30;0.30;;;;;;;;;;4115286;28;20486;-50
2022/02/13 11:50:14;;;;;;;0.63;0.22;;;;;;;;;;4115686;28;20396;-52
2022/02/13 11:52:27;;;;;;;0.63;0.30;;;;;;;;;;4115354;28;20546;-51
2022/02/13 11:54:53;;;;;;;0.38;0.20;;;;;;;;;;4115690;28;20101;-55
2022/02/13 11:57:15;;;;;;;0.20;0.20;;;;;;;;;;4115407;28;20545;-53
2022/02/13 11:59:51;;;;;;;0.57;0.25;;;;;;;;;;4098455;29;20059;-52
2022/02/13 12:01:52;;;;;;;0.65;0.20;;;;;;;;;;4115205;28;20121;-52
2022/02/13 12:03:53;;;;;;;1.23;0.40;;;;;;;;;;4115620;28;20062;-53
2022/02/13 12:06:07;;;;;;;2.45;0.60;;;;;;;;;;4114331;28;20054;-50
2022/02/13 12:08:08;;;;;;;1.35;0.43;;;;;;;;;;4097889;28;20051;-48
2022/02/13 12:10:36;;;;;;;0.17;0.17;;;;;;;;;;4115318;28;20364;-52
2022/02/13 12:12:41;;;;;;;0.88;0.30;;;;;;;;;;4097286;28;20423;-54
2022/02/13 12:14:42;;;;;;;0.57;0.30;;;;;;;;;;4097974;29;20106;-52
2022/02/13 12:16:49;;;;;;;1.35;0.40;;;;;;;;;;4114907;28;20058;-51